CPA3974 VMMC-VHHH
Flight info
| Callsign | CPA3974 |
|---|---|
| Flight time | 0h 23m |
| Altitude | 16000 |
| Route | ALLEY4T/34 ALLEY DCT CANTO |
| Aircraft | B77W/H-SDE3GHIJ2J3J7M3P2RWXYZ/LB1D1 |
Departure
| Time | 2026-04-26 13:29 |
|---|---|
| Airport | Macau International Airport (VMMC) |
Arrival
| Time | 2026-04-26 13:52 |
|---|---|
| Airport | Hong Kong International Airport (VHHH) |
| Time | Latitude | Longitude | Altitude | Speed | Heading |
|---|---|---|---|---|---|
| 2026-04-26 13:09 | 22.15700 | 113.57632 | 21 ft | 15 kts | 213° |
| 2026-04-26 13:09 | 22.15640 | 113.57600 | 21 ft | 0 kts | 178° |
| 2026-04-26 13:10 | 22.15631 | 113.57597 | 21 ft | 4 kts | 206° |
| 2026-04-26 13:10 | 22.15603 | 113.57539 | 22 ft | 9 kts | 238° |
| 2026-04-26 13:11 | 22.15564 | 113.57503 | 23 ft | 7 kts | 184° |
| 2026-04-26 13:11 | 22.15520 | 113.57520 | 21 ft | 4 kts | 151° |
| 2026-04-26 13:11 | 22.15500 | 113.57533 | 20 ft | 0 kts | 150° |
| 2026-04-26 13:17 | 22.15506 | 113.57529 | 21 ft | 2 kts | 150° |
| 2026-04-26 13:17 | 22.15519 | 113.57520 | 21 ft | 2 kts | 148° |
| 2026-04-26 13:18 | 22.15539 | 113.57498 | 23 ft | 2 kts | 119° |
| 2026-04-26 13:18 | 22.15545 | 113.57483 | 23 ft | 2 kts | 106° |
| 2026-04-26 13:19 | 22.15548 | 113.57468 | 24 ft | 2 kts | 93° |
| 2026-04-26 13:19 | 22.15547 | 113.57452 | 24 ft | 2 kts | 79° |
| 2026-04-26 13:19 | 22.15543 | 113.57436 | 24 ft | 2 kts | 66° |
| 2026-04-26 13:19 | 22.15536 | 113.57423 | 24 ft | 2 kts | 59° |
| 2026-04-26 13:20 | 22.15531 | 113.57413 | 23 ft | 0 kts | 60° |
| 2026-04-26 13:22 | 22.15541 | 113.57433 | 24 ft | 7 kts | 61° |
| 2026-04-26 13:22 | 22.15584 | 113.57512 | 23 ft | 12 kts | 57° |
| 2026-04-26 13:23 | 22.15617 | 113.57575 | 21 ft | 10 kts | 89° |
| 2026-04-26 13:23 | 22.15578 | 113.57659 | 17 ft | 15 kts | 124° |
| 2026-04-26 13:23 | 22.15510 | 113.57767 | 16 ft | 18 kts | 124° |
| 2026-04-26 13:23 | 22.15437 | 113.57886 | 16 ft | 19 kts | 123° |
| 2026-04-26 13:24 | 22.15359 | 113.58012 | 16 ft | 20 kts | 124° |
| 2026-04-26 13:24 | 22.15281 | 113.58139 | 16 ft | 16 kts | 123° |
| 2026-04-26 13:24 | 22.15208 | 113.58257 | 16 ft | 22 kts | 123° |
| 2026-04-26 13:24 | 22.15109 | 113.58418 | 16 ft | 29 kts | 124° |
| 2026-04-26 13:25 | 22.14992 | 113.58610 | 16 ft | 30 kts | 124° |
| 2026-04-26 13:25 | 22.14873 | 113.58800 | 17 ft | 29 kts | 124° |
| 2026-04-26 13:25 | 22.14767 | 113.58971 | 21 ft | 19 kts | 124° |
| 2026-04-26 13:25 | 22.14681 | 113.59048 | 24 ft | 16 kts | 160° |
| 2026-04-26 13:26 | 22.14544 | 113.59099 | 22 ft | 25 kts | 161° |
| 2026-04-26 13:26 | 22.14354 | 113.59168 | 23 ft | 29 kts | 161° |
| 2026-04-26 13:26 | 22.14162 | 113.59239 | 27 ft | 28 kts | 161° |
| 2026-04-26 13:26 | 22.13974 | 113.59308 | 26 ft | 29 kts | 161° |
| 2026-04-26 13:27 | 22.13769 | 113.59383 | 19 ft | 31 kts | 161° |
| 2026-04-26 13:27 | 22.13588 | 113.59450 | 17 ft | 14 kts | 156° |
| 2026-04-26 13:27 | 22.13522 | 113.59529 | 22 ft | 13 kts | 125° |
| 2026-04-26 13:27 | 22.13499 | 113.59614 | 25 ft | 11 kts | 71° |
| 2026-04-26 13:28 | 22.13572 | 113.59642 | 23 ft | 13 kts | 346° |
| 2026-04-26 13:28 | 22.13596 | 113.59635 | 23 ft | 0 kts | 341° |
| 2026-04-26 13:28 | 22.13753 | 113.59578 | 21 ft | 61 kts | 341° |
| 2026-04-26 13:28 | 22.14478 | 113.59311 | 25 ft | 156 kts | 341° |
| 2026-04-26 13:29 | 22.15682 | 113.58878 | 450 ft | 199 kts | 343° |
| 2026-04-26 13:29 | 22.16589 | 113.58649 | 1214 ft | 205 kts | 1° |
| 2026-04-26 13:29 | 22.18355 | 113.59105 | 2388 ft | 209 kts | 27° |
| 2026-04-26 13:29 | 22.19655 | 113.59777 | 3289 ft | 213 kts | 28° |
| 2026-04-26 13:30 | 22.21071 | 113.60541 | 3811 ft | 239 kts | 28° |
| 2026-04-26 13:30 | 22.22553 | 113.61339 | 3874 ft | 231 kts | 28° |
| 2026-04-26 13:30 | 22.23999 | 113.62114 | 3878 ft | 225 kts | 28° |
| 2026-04-26 13:30 | 22.25435 | 113.62884 | 3963 ft | 239 kts | 28° |
| 2026-04-26 13:31 | 22.26911 | 113.63672 | 4986 ft | 238 kts | 27° |
| 2026-04-26 13:31 | 22.28337 | 113.64518 | 5700 ft | 234 kts | 36° |
| 2026-04-26 13:31 | 22.29620 | 113.65578 | 5947 ft | 232 kts | 38° |
| 2026-04-26 13:31 | 22.30883 | 113.66668 | 5976 ft | 230 kts | 38° |
| 2026-04-26 13:32 | 22.32145 | 113.67757 | 5981 ft | 233 kts | 38° |
| 2026-04-26 13:32 | 22.33475 | 113.68981 | 5987 ft | 266 kts | 48° |
| 2026-04-26 13:32 | 22.34439 | 113.70757 | 5976 ft | 277 kts | 72° |
| 2026-04-26 13:32 | 22.34897 | 113.72784 | 5980 ft | 279 kts | 79° |
| 2026-04-26 13:33 | 22.35280 | 113.74860 | 5978 ft | 279 kts | 79° |
| 2026-04-26 13:33 | 22.35665 | 113.76909 | 5976 ft | 276 kts | 79° |
| 2026-04-26 13:33 | 22.36065 | 113.78986 | 6096 ft | 293 kts | 78° |
| 2026-04-26 13:33 | 22.36481 | 113.81132 | 7290 ft | 289 kts | 78° |
| 2026-04-26 13:34 | 22.36883 | 113.83202 | 8456 ft | 285 kts | 79° |
| 2026-04-26 13:34 | 22.37235 | 113.85307 | 9349 ft | 289 kts | 88° |
| 2026-04-26 13:34 | 22.36954 | 113.87440 | 10233 ft | 294 kts | 110° |
| 2026-04-26 13:34 | 22.36342 | 113.88780 | 10732 ft | 301 kts | 125° |
| 2026-04-26 13:35 | 22.34306 | 113.90781 | 11736 ft | 300 kts | 149° |
| 2026-04-26 13:35 | 22.32425 | 113.91905 | 11946 ft | 317 kts | 152° |
| 2026-04-26 13:35 | 22.30425 | 113.93089 | 11959 ft | 328 kts | 151° |
| 2026-04-26 13:35 | 22.28440 | 113.94307 | 11960 ft | 330 kts | 151° |
| 2026-04-26 13:36 | 22.26432 | 113.95557 | 11959 ft | 331 kts | 150° |
| 2026-04-26 13:36 | 22.24433 | 113.96809 | 11958 ft | 330 kts | 150° |
| 2026-04-26 13:36 | 22.22347 | 113.97887 | 11964 ft | 330 kts | 163° |
| 2026-04-26 13:36 | 22.20066 | 113.98320 | 11931 ft | 324 kts | 175° |
| 2026-04-26 13:37 | 22.17832 | 113.98514 | 11506 ft | 322 kts | 176° |
| 2026-04-26 13:37 | 22.15565 | 113.98672 | 10874 ft | 325 kts | 176° |
| 2026-04-26 13:37 | 22.13321 | 113.98821 | 10365 ft | 324 kts | 176° |
| 2026-04-26 13:37 | 22.11060 | 113.98972 | 9906 ft | 321 kts | 176° |
| 2026-04-26 13:38 | 22.08809 | 113.99124 | 9421 ft | 320 kts | 176° |
| 2026-04-26 13:38 | 22.06600 | 113.99273 | 8940 ft | 318 kts | 176° |
| 2026-04-26 13:38 | 22.04418 | 113.99594 | 8471 ft | 316 kts | 168° |
| 2026-04-26 13:38 | 22.02307 | 114.00133 | 7990 ft | 314 kts | 159° |
| 2026-04-26 13:39 | 22.00481 | 114.01387 | 7745 ft | 302 kts | 134° |
| 2026-04-26 13:39 | 21.99320 | 114.03212 | 7594 ft | 289 kts | 118° |
| 2026-04-26 13:39 | 21.98403 | 114.05130 | 7361 ft | 282 kts | 116° |
| 2026-04-26 13:39 | 21.97839 | 114.07122 | 6881 ft | 284 kts | 94° |
| 2026-04-26 13:40 | 21.98148 | 114.09209 | 6469 ft | 282 kts | 67° |
| 2026-04-26 13:40 | 21.99278 | 114.10911 | 6069 ft | 280 kts | 40° |
| 2026-04-26 13:40 | 22.00994 | 114.11884 | 5672 ft | 277 kts | 13° |
| 2026-04-26 13:40 | 22.02885 | 114.11921 | 5282 ft | 274 kts | 347° |
| 2026-04-26 13:41 | 22.04677 | 114.11175 | 4901 ft | 273 kts | 329° |
| 2026-04-26 13:41 | 22.06019 | 114.09770 | 4517 ft | 273 kts | 302° |
| 2026-04-26 13:41 | 22.06655 | 114.07848 | 4139 ft | 273 kts | 281° |
| 2026-04-26 13:41 | 22.06950 | 114.05838 | 3997 ft | 271 kts | 279° |
| 2026-04-26 13:42 | 22.07224 | 114.03828 | 3983 ft | 271 kts | 279° |
| 2026-04-26 13:42 | 22.07499 | 114.01800 | 3981 ft | 272 kts | 278° |
| 2026-04-26 13:42 | 22.07772 | 113.99777 | 3976 ft | 272 kts | 278° |
| 2026-04-26 13:42 | 22.08046 | 113.97744 | 3983 ft | 273 kts | 278° |
| 2026-04-26 13:43 | 22.08319 | 113.95720 | 3980 ft | 273 kts | 278° |
| 2026-04-26 13:43 | 22.08588 | 113.93714 | 3981 ft | 272 kts | 278° |
| 2026-04-26 13:43 | 22.08857 | 113.91695 | 3984 ft | 273 kts | 278° |
| 2026-04-26 13:43 | 22.09130 | 113.89650 | 3994 ft | 273 kts | 278° |
| 2026-04-26 13:44 | 22.09399 | 113.87629 | 3994 ft | 271 kts | 278° |
| 2026-04-26 13:44 | 22.09656 | 113.85686 | 3992 ft | 257 kts | 278° |
| 2026-04-26 13:44 | 22.09829 | 113.84376 | 3993 ft | 246 kts | 278° |
| 2026-04-26 13:44 | 22.10065 | 113.82584 | 3992 ft | 232 kts | 278° |
| 2026-04-26 13:45 | 22.10286 | 113.80904 | 3998 ft | 223 kts | 278° |
| 2026-04-26 13:45 | 22.10446 | 113.79703 | 3989 ft | 220 kts | 281° |
| 2026-04-26 13:45 | 22.10999 | 113.78175 | 3993 ft | 216 kts | 305° |
| 2026-04-26 13:45 | 22.12027 | 113.77090 | 3989 ft | 203 kts | 329° |
| 2026-04-26 13:46 | 22.13273 | 113.76356 | 3977 ft | 210 kts | 333° |
| 2026-04-26 13:46 | 22.14595 | 113.75647 | 3817 ft | 211 kts | 336° |
| 2026-04-26 13:46 | 22.15913 | 113.74982 | 3746 ft | 201 kts | 336° |
| 2026-04-26 13:46 | 22.17184 | 113.74348 | 3683 ft | 197 kts | 336° |
| 2026-04-26 13:47 | 22.18438 | 113.73722 | 3614 ft | 196 kts | 337° |
| 2026-04-26 13:47 | 22.19682 | 113.73102 | 3540 ft | 195 kts | 337° |
| 2026-04-26 13:47 | 22.20916 | 113.72485 | 3467 ft | 195 kts | 337° |
| 2026-04-26 13:47 | 22.22162 | 113.71877 | 3393 ft | 194 kts | 342° |
| 2026-04-26 13:48 | 22.23497 | 113.71809 | 3318 ft | 193 kts | 19° |
| 2026-04-26 13:48 | 22.24682 | 113.72488 | 3137 ft | 194 kts | 38° |
| 2026-04-26 13:48 | 22.25724 | 113.73408 | 2910 ft | 192 kts | 43° |
| 2026-04-26 13:48 | 22.26740 | 113.74357 | 2701 ft | 189 kts | 43° |
| 2026-04-26 13:49 | 22.27707 | 113.75281 | 2529 ft | 185 kts | 51° |
| 2026-04-26 13:49 | 22.28350 | 113.76500 | 2421 ft | 185 kts | 70° |
| 2026-04-26 13:49 | 22.28787 | 113.77802 | 2348 ft | 183 kts | 74° |
| 2026-04-26 13:49 | 22.29152 | 113.79114 | 2246 ft | 187 kts | 74° |
| 2026-04-26 13:50 | 22.29565 | 113.80491 | 1848 ft | 190 kts | 75° |
| 2026-04-26 13:50 | 22.29978 | 113.81792 | 1582 ft | 184 kts | 73° |
| 2026-04-26 13:50 | 22.30444 | 113.83089 | 1309 ft | 183 kts | 70° |
| 2026-04-26 13:50 | 22.30926 | 113.84349 | 1027 ft | 182 kts | 71° |
| 2026-04-26 13:51 | 22.31326 | 113.85628 | 601 ft | 177 kts | 75° |
| 2026-04-26 13:51 | 22.31714 | 113.86829 | 351 ft | 161 kts | 72° |
| 2026-04-26 13:51 | 22.32065 | 113.87929 | 102 ft | 146 kts | 73° |
| 2026-04-26 13:51 | 22.32385 | 113.88923 | 17 ft | 131 kts | 73° |
| 2026-04-26 13:52 | 22.32655 | 113.89772 | 16 ft | 102 kts | 70° |
| 2026-04-26 13:52 | 22.32838 | 113.90340 | 16 ft | 63 kts | 71° |
| 2026-04-26 13:52 | 22.32936 | 113.90686 | 16 ft | 32 kts | 80° |
| 2026-04-26 13:52 | 22.32915 | 113.90918 | 16 ft | 30 kts | 103° |
| 2026-04-26 13:53 | 22.32916 | 113.91142 | 16 ft | 29 kts | 72° |
| 2026-04-26 13:53 | 22.32984 | 113.91356 | 16 ft | 29 kts | 71° |
| 2026-04-26 13:53 | 22.33052 | 113.91569 | 16 ft | 30 kts | 71° |
| 2026-04-26 13:53 | 22.33120 | 113.91782 | 16 ft | 30 kts | 71° |
| 2026-04-26 13:54 | 22.33188 | 113.91996 | 16 ft | 21 kts | 71° |
| 2026-04-26 13:54 | 22.33186 | 113.92122 | 16 ft | 16 kts | 141° |
| 2026-04-26 13:54 | 22.33072 | 113.92169 | 16 ft | 18 kts | 161° |
| 2026-04-26 13:55 | 22.32757 | 113.92286 | 16 ft | 29 kts | 161° |
| 2026-04-26 13:55 | 22.32632 | 113.92333 | 18 ft | 28 kts | 161° |
| 2026-04-26 13:55 | 22.32256 | 113.92481 | 26 ft | 12 kts | 128° |
| 2026-04-26 13:56 | 22.32260 | 113.92575 | 27 ft | 14 kts | 70° |
| 2026-04-26 13:56 | 22.32245 | 113.92665 | 28 ft | 14 kts | 150° |
| 2026-04-26 13:56 | 22.32147 | 113.92705 | 30 ft | 17 kts | 162° |
| 2026-04-26 13:56 | 22.32012 | 113.92753 | 33 ft | 22 kts | 161° |
| 2026-04-26 13:57 | 22.31873 | 113.92808 | 36 ft | 20 kts | 157° |
| 2026-04-26 13:57 | 22.31783 | 113.92796 | 37 ft | 14 kts | 236° |
| 2026-04-26 13:57 | 22.31745 | 113.92687 | 37 ft | 16 kts | 251° |
| 2026-04-26 13:57 | 22.31705 | 113.92561 | 38 ft | 18 kts | 251° |
| 2026-04-26 13:58 | 22.31657 | 113.92482 | 40 ft | 9 kts | 196° |
| 2026-04-26 13:58 | 22.31607 | 113.92505 | 43 ft | 6 kts | 131° |
| 2026-04-26 13:58 | 22.31567 | 113.92512 | 44 ft | 6 kts | 201° |
| 2026-04-26 13:58 | 22.31525 | 113.92490 | 44 ft | 4 kts | 206° |
| 2026-04-26 13:59 | 22.31509 | 113.92481 | 44 ft | 0 kts | 206° |